sensor_id;sensor_type;location;lat;lon;timestamp;P1;durP1;ratioP1;P2;durP2;ratioP2
37789;SDS011;23628;51.434;6.988;2022-12-18T06:45:46;36.42;;;20.40;;
37789;SDS011;23628;51.434;6.988;2022-12-18T06:48:27;38.63;;;20.63;;
37789;SDS011;23628;51.434;6.988;2022-12-18T06:50:58;35.78;;;19.95;;
37789;SDS011;23628;51.434;6.988;2022-12-18T06:53:25;35.22;;;19.77;;
37789;SDS011;23628;51.434;6.988;2022-12-18T06:56:04;36.78;;;20.10;;
37789;SDS011;23628;51.434;6.988;2022-12-18T06:58:36;36.17;;;20.05;;
37789;SDS011;23628;51.434;6.988;2022-12-18T07:01:22;20.77;;;10.37;;
37789;SDS011;23628;51.434;6.988;2022-12-18T07:06:25;7.82;;;4.20;;
37789;SDS011;23628;51.434;6.988;2022-12-18T12:14:42;7.45;;;3.53;;
37789;SDS011;23628;51.434;6.988;2022-12-18T12:19:56;4.53;;;3.30;;
37789;SDS011;23628;51.434;6.988;2022-12-18T12:36:17;5.50;;;4.10;;
37789;SDS011;23628;51.434;6.988;2022-12-18T12:39:31;6.93;;;3.75;;
37789;SDS011;23628;51.434;6.988;2022-12-18T12:42:31;6.85;;;4.47;;
37789;SDS011;23628;51.434;6.988;2022-12-18T13:05:54;7.40;;;4.63;;
37789;SDS011;23628;51.434;6.988;2022-12-18T13:14:45;10.27;;;5.45;;
37789;SDS011;23628;51.434;6.988;2022-12-18T13:19:50;7.38;;;5.13;;
37789;SDS011;23628;51.434;6.988;2022-12-18T13:27:58;8.10;;;5.68;;
37789;SDS011;23628;51.434;6.988;2022-12-18T13:35:52;6.72;;;4.97;;
37789;SDS011;23628;51.434;6.988;2022-12-18T13:38:35;7.55;;;5.15;;
37789;SDS011;23628;51.434;6.988;2022-12-18T13:41:32;8.43;;;5.68;;
37789;SDS011;23628;51.434;6.988;2022-12-18T13:53:44;9.70;;;6.20;;
37789;SDS011;23628;51.434;6.988;2022-12-18T13:56:15;7.95;;;5.15;;
37789;SDS011;23628;51.434;6.988;2022-12-18T13:59:08;8.65;;;5.80;;
37789;SDS011;23628;51.434;6.988;2022-12-18T14:07:40;9.20;;;6.03;;
37789;SDS011;23628;51.434;6.988;2022-12-18T14:33:28;10.60;;;6.90;;
37789;SDS011;23628;51.434;6.988;2022-12-18T14:39:16;8.85;;;5.70;;
37789;SDS011;23628;51.434;6.988;2022-12-18T14:47:57;9.30;;;6.00;;
37789;SDS011;23628;51.434;6.988;2022-12-18T14:53:20;12.27;;;7.47;;
37789;SDS011;23628;51.434;6.988;2022-12-18T14:55:51;14.90;;;6.95;;
37789;SDS011;23628;51.434;6.988;2022-12-18T15:04:32;12.32;;;7.40;;
37789;SDS011;23628;51.434;6.988;2022-12-18T15:18:38;11.18;;;7.28;;
37789;SDS011;23628;51.434;6.988;2022-12-18T15:21:36;10.35;;;6.93;;
37789;SDS011;23628;51.434;6.988;2022-12-18T15:27:52;14.43;;;7.67;;
37789;SDS011;23628;51.434;6.988;2022-12-18T18:22:23;25.40;;;14.80;;
37789;SDS011;23628;51.434;6.988;2022-12-18T18:24:57;23.10;;;13.60;;
37789;SDS011;23628;51.434;6.988;2022-12-18T18:30:14;25.87;;;15.17;;
37789;SDS011;23628;51.434;6.988;2022-12-18T18:35:26;23.52;;;14.75;;
37789;SDS011;23628;51.434;6.988;2022-12-18T18:40:59;24.25;;;14.90;;
37789;SDS011;23628;51.434;6.988;2022-12-18T18:43:36;32.95;;;16.95;;
37789;SDS011;23628;51.434;6.988;2022-12-18T18:46:04;25.40;;;15.13;;
37789;SDS011;23628;51.434;6.988;2022-12-18T18:48:33;24.65;;;16.27;;
37789;SDS011;23628;51.434;6.988;2022-12-18T18:51:03;28.25;;;17.80;;
37789;SDS011;23628;51.434;6.988;2022-12-18T18:56:21;24.73;;;15.63;;
37789;SDS011;23628;51.434;6.988;2022-12-18T18:59:09;24.35;;;15.27;;
37789;SDS011;23628;51.434;6.988;2022-12-18T19:01:43;24.75;;;15.40;;
37789;SDS011;23628;51.434;6.988;2022-12-18T19:04:10;23.13;;;14.23;;
37789;SDS011;23628;51.434;6.988;2022-12-18T19:06:38;29.75;;;17.08;;
37789;SDS011;23628;51.434;6.988;2022-12-18T19:09:05;24.25;;;15.20;;
37789;SDS011;23628;51.434;6.988;2022-12-18T19:11:33;28.98;;;17.75;;
37789;SDS011;23628;51.434;6.988;2022-12-18T19:14:26;26.73;;;16.33;;
37789;SDS011;23628;51.434;6.988;2022-12-18T19:19:29;25.88;;;15.30;;
37789;SDS011;23628;51.434;6.988;2022-12-18T19:24:37;24.63;;;15.20;;
37789;SDS011;23628;51.434;6.988;2022-12-18T19:29:42;25.30;;;14.27;;
37789;SDS011;23628;51.434;6.988;2022-12-18T19:32:10;25.90;;;17.15;;
37789;SDS011;23628;51.434;6.988;2022-12-18T19:37:13;24.17;;;14.40;;
37789;SDS011;23628;51.434;6.988;2022-12-18T19:42:21;23.35;;;14.73;;
37789;SDS011;23628;51.434;6.988;2022-12-18T19:47:32;23.02;;;14.90;;
37789;SDS011;23628;51.434;6.988;2022-12-18T19:52:54;25.30;;;15.35;;
37789;SDS011;23628;51.434;6.988;2022-12-18T19:55:24;21.95;;;14.65;;
37789;SDS011;23628;51.434;6.988;2022-12-18T19:57:51;21.67;;;13.88;;
37789;SDS011;23628;51.434;6.988;2022-12-18T20:00:21;21.75;;;13.88;;
37789;SDS011;23628;51.434;6.988;2022-12-18T20:02:49;22.60;;;13.88;;
37789;SDS011;23628;51.434;6.988;2022-12-18T20:05:17;26.88;;;16.33;;
37789;SDS011;23628;51.434;6.988;2022-12-18T20:07:53;23.88;;;13.05;;
37789;SDS011;23628;51.434;6.988;2022-12-18T20:10:20;22.52;;;13.85;;
37789;SDS011;23628;51.434;6.988;2022-12-18T20:12:47;21.60;;;12.80;;
37789;SDS011;23628;51.434;6.988;2022-12-18T20:15:25;25.85;;;15.38;;
37789;SDS011;23628;51.434;6.988;2022-12-18T20:17:53;21.58;;;13.90;;
37789;SDS011;23628;51.434;6.988;2022-12-18T20:20:30;25.92;;;14.60;;
37789;SDS011;23628;51.434;6.988;2022-12-18T20:22:57;20.55;;;13.48;;
37789;SDS011;23628;51.434;6.988;2022-12-18T20:25:36;23.30;;;15.15;;
37789;SDS011;23628;51.434;6.988;2022-12-18T20:28:05;26.35;;;14.43;;
37789;SDS011;23628;51.434;6.988;2022-12-18T20:30:33;24.73;;;15.45;;
37789;SDS011;23628;51.434;6.988;2022-12-18T20:33:01;23.58;;;13.68;;
37789;SDS011;23628;51.434;6.988;2022-12-18T20:35:30;29.90;;;16.13;;
37789;SDS011;23628;51.434;6.988;2022-12-18T20:38:11;27.17;;;14.93;;
37789;SDS011;23628;51.434;6.988;2022-12-18T20:40:39;22.58;;;14.63;;
37789;SDS011;23628;51.434;6.988;2022-12-18T20:43:07;24.35;;;13.57;;
37789;SDS011;23628;51.434;6.988;2022-12-18T20:45:42;23.73;;;14.75;;
37789;SDS011;23628;51.434;6.988;2022-12-18T20:48:12;28.58;;;16.25;;
37789;SDS011;23628;51.434;6.988;2022-12-18T20:50:43;24.35;;;14.05;;
37789;SDS011;23628;51.434;6.988;2022-12-18T20:55:47;24.20;;;14.95;;
37789;SDS011;23628;51.434;6.988;2022-12-18T20:58:14;24.60;;;14.88;;
37789;SDS011;23628;51.434;6.988;2022-12-18T21:03:56;27.58;;;15.95;;
37789;SDS011;23628;51.434;6.988;2022-12-18T21:06:28;24.67;;;14.95;;
37789;SDS011;23628;51.434;6.988;2022-12-18T21:09:02;24.70;;;15.68;;
37789;SDS011;23628;51.434;6.988;2022-12-18T21:11:41;23.88;;;14.75;;
37789;SDS011;23628;51.434;6.988;2022-12-18T21:14:27;24.67;;;15.05;;
37789;SDS011;23628;51.434;6.988;2022-12-18T21:19:33;24.48;;;14.05;;
37789;SDS011;23628;51.434;6.988;2022-12-18T21:22:01;26.35;;;15.38;;
37789;SDS011;23628;51.434;6.988;2022-12-18T21:24:29;24.08;;;14.98;;
37789;SDS011;23628;51.434;6.988;2022-12-18T21:27:01;31.70;;;17.58;;
37789;SDS011;23628;51.434;6.988;2022-12-18T21:29:29;22.67;;;13.82;;
37789;SDS011;23628;51.434;6.988;2022-12-18T21:32:03;25.95;;;15.23;;
37789;SDS011;23628;51.434;6.988;2022-12-18T21:34:31;22.52;;;14.45;;
37789;SDS011;23628;51.434;6.988;2022-12-18T21:37:02;20.98;;;12.82;;
37789;SDS011;23628;51.434;6.988;2022-12-18T21:42:19;23.55;;;14.75;;
37789;SDS011;23628;51.434;6.988;2022-12-18T21:45:06;25.40;;;13.98;;
37789;SDS011;23628;51.434;6.988;2022-12-18T21:47:33;26.42;;;14.88;;
37789;SDS011;23628;51.434;6.988;2022-12-18T21:50:00;22.30;;;13.63;;
37789;SDS011;23628;51.434;6.988;2022-12-18T21:52:30;24.50;;;14.98;;
37789;SDS011;23628;51.434;6.988;2022-12-18T21:55:01;25.42;;;14.93;;
37789;SDS011;23628;51.434;6.988;2022-12-18T21:57:35;22.77;;;13.88;;
37789;SDS011;23628;51.434;6.988;2022-12-18T22:02:45;26.33;;;15.68;;
37789;SDS011;23628;51.434;6.988;2022-12-18T22:05:35;23.80;;;13.95;;
37789;SDS011;23628;51.434;6.988;2022-12-18T22:08:13;26.10;;;15.60;;
37789;SDS011;23628;51.434;6.988;2022-12-18T22:10:40;26.48;;;16.13;;
37789;SDS011;23628;51.434;6.988;2022-12-18T22:13:08;26.02;;;15.40;;
37789;SDS011;23628;51.434;6.988;2022-12-18T22:15:35;23.52;;;14.27;;
37789;SDS011;23628;51.434;6.988;2022-12-18T22:18:02;25.60;;;15.48;;
37789;SDS011;23628;51.434;6.988;2022-12-18T22:20:41;23.70;;;15.13;;
37789;SDS011;23628;51.434;6.988;2022-12-18T22:25:45;24.80;;;15.35;;
37789;SDS011;23628;51.434;6.988;2022-12-18T22:31:05;25.85;;;15.80;;
37789;SDS011;23628;51.434;6.988;2022-12-18T22:33:33;23.00;;;14.52;;
37789;SDS011;23628;51.434;6.988;2022-12-18T22:38:34;27.08;;;16.52;;
37789;SDS011;23628;51.434;6.988;2022-12-18T22:41:03;24.13;;;14.65;;
37789;SDS011;23628;51.434;6.988;2022-12-18T22:43:29;30.85;;;16.85;;
37789;SDS011;23628;51.434;6.988;2022-12-18T22:48:34;23.83;;;15.13;;
37789;SDS011;23628;51.434;6.988;2022-12-18T22:51:02;25.30;;;15.45;;
37789;SDS011;23628;51.434;6.988;2022-12-18T22:53:29;27.08;;;16.17;;
37789;SDS011;23628;51.434;6.988;2022-12-18T22:56:00;27.65;;;16.58;;
37789;SDS011;23628;51.434;6.988;2022-12-18T22:58:28;24.58;;;14.68;;
37789;SDS011;23628;51.434;6.988;2022-12-18T23:00:55;25.33;;;16.05;;
37789;SDS011;23628;51.434;6.988;2022-12-18T23:03:23;27.83;;;15.90;;
37789;SDS011;23628;51.434;6.988;2022-12-18T23:05:50;26.65;;;15.77;;
37789;SDS011;23628;51.434;6.988;2022-12-18T23:08:19;27.48;;;16.95;;
37789;SDS011;23628;51.434;6.988;2022-12-18T23:10:50;26.15;;;16.33;;
37789;SDS011;23628;51.434;6.988;2022-12-18T23:13:27;27.40;;;17.90;;
37789;SDS011;23628;51.434;6.988;2022-12-18T23:15:54;25.23;;;14.93;;
37789;SDS011;23628;51.434;6.988;2022-12-18T23:18:29;28.77;;;15.88;;
